sensor_id;sensor_type;location;lat;lon;timestamp;P1;durP1;ratioP1;P2;durP2;ratioP2
70683;SDS011;58263;48.146;11.440;2023-04-08T00:02:18;10.32;;;6.25;;
70683;SDS011;58263;48.146;11.440;2023-04-08T00:04:43;10.90;;;6.67;;
70683;SDS011;58263;48.146;11.440;2023-04-08T00:07:09;10.60;;;6.07;;
70683;SDS011;58263;48.146;11.440;2023-04-08T00:09:35;10.30;;;6.50;;
70683;SDS011;58263;48.146;11.440;2023-04-08T00:12:00;10.20;;;5.27;;
70683;SDS011;58263;48.146;11.440;2023-04-08T00:14:26;9.90;;;5.43;;
70683;SDS011;58263;48.146;11.440;2023-04-08T00:16:51;10.52;;;6.10;;
70683;SDS011;58263;48.146;11.440;2023-04-08T00:19:16;11.57;;;6.55;;
70683;SDS011;58263;48.146;11.440;2023-04-08T00:21:42;10.13;;;5.97;;
70683;SDS011;58263;48.146;11.440;2023-04-08T00:24:07;7.83;;;6.33;;
70683;SDS011;58263;48.146;11.440;2023-04-08T00:26:32;6.80;;;4.97;;
70683;SDS011;58263;48.146;11.440;2023-04-08T00:28:58;7.13;;;5.13;;
70683;SDS011;58263;48.146;11.440;2023-04-08T00:31:23;6.37;;;4.50;;
70683;SDS011;58263;48.146;11.440;2023-04-08T00:33:48;6.95;;;4.68;;
70683;SDS011;58263;48.146;11.440;2023-04-08T00:36:14;7.45;;;5.25;;
70683;SDS011;58263;48.146;11.440;2023-04-08T00:38:39;7.83;;;5.03;;
70683;SDS011;58263;48.146;11.440;2023-04-08T00:41:04;9.83;;;5.63;;
70683;SDS011;58263;48.146;11.440;2023-04-08T00:43:30;8.10;;;5.22;;
70683;SDS011;58263;48.146;11.440;2023-04-08T00:45:55;8.13;;;5.30;;
70683;SDS011;58263;48.146;11.440;2023-04-08T00:48:21;8.23;;;4.93;;
70683;SDS011;58263;48.146;11.440;2023-04-08T00:50:46;9.10;;;4.63;;
70683;SDS011;58263;48.146;11.440;2023-04-08T00:53:14;7.40;;;5.40;;
70683;SDS011;58263;48.146;11.440;2023-04-08T00:55:44;6.68;;;4.68;;
70683;SDS011;58263;48.146;11.440;2023-04-08T01:00:36;6.90;;;4.20;;
70683;SDS011;58263;48.146;11.440;2023-04-08T01:03:10;8.43;;;5.82;;
70683;SDS011;58263;48.146;11.440;2023-04-08T01:05:51;8.05;;;4.93;;
70683;SDS011;58263;48.146;11.440;2023-04-08T01:08:24;6.05;;;4.05;;
70683;SDS011;58263;48.146;11.440;2023-04-08T01:10:54;6.22;;;4.05;;
70683;SDS011;58263;48.146;11.440;2023-04-08T01:13:25;5.75;;;4.47;;
70683;SDS011;58263;48.146;11.440;2023-04-08T01:15:55;7.07;;;4.53;;
70683;SDS011;58263;48.146;11.440;2023-04-08T01:18:21;6.57;;;4.15;;
70683;SDS011;58263;48.146;11.440;2023-04-08T01:20:48;8.00;;;4.93;;
70683;SDS011;58263;48.146;11.440;2023-04-08T01:26:01;5.38;;;3.97;;
70683;SDS011;58263;48.146;11.440;2023-04-08T01:28:27;8.05;;;4.55;;
70683;SDS011;58263;48.146;11.440;2023-04-08T01:30:54;6.68;;;4.05;;
70683;SDS011;58263;48.146;11.440;2023-04-08T01:33:21;6.47;;;4.15;;
70683;SDS011;58263;48.146;11.440;2023-04-08T01:35:48;5.13;;;3.72;;
70683;SDS011;58263;48.146;11.440;2023-04-08T01:38:17;7.20;;;4.10;;
70683;SDS011;58263;48.146;11.440;2023-04-08T01:43:12;7.32;;;4.72;;
70683;SDS011;58263;48.146;11.440;2023-04-08T01:45:38;4.50;;;3.67;;
70683;SDS011;58263;48.146;11.440;2023-04-08T01:48:04;6.20;;;4.23;;
70683;SDS011;58263;48.146;11.440;2023-04-08T01:50:31;7.28;;;4.00;;
70683;SDS011;58263;48.146;11.440;2023-04-08T01:52:56;7.10;;;4.13;;
70683;SDS011;58263;48.146;11.440;2023-04-08T01:55:24;7.13;;;4.40;;
70683;SDS011;58263;48.146;11.440;2023-04-08T01:57:51;5.72;;;4.18;;
70683;SDS011;58263;48.146;11.440;2023-04-08T02:00:23;5.22;;;3.95;;
70683;SDS011;58263;48.146;11.440;2023-04-08T02:02:51;5.90;;;4.57;;
70683;SDS011;58263;48.146;11.440;2023-04-08T02:05:17;7.85;;;4.75;;
70683;SDS011;58263;48.146;11.440;2023-04-08T02:07:43;6.68;;;4.13;;
70683;SDS011;58263;48.146;11.440;2023-04-08T02:10:10;6.68;;;4.32;;
70683;SDS011;58263;48.146;11.440;2023-04-08T02:12:36;6.82;;;4.10;;
70683;SDS011;58263;48.146;11.440;2023-04-08T02:15:01;7.97;;;4.80;;
70683;SDS011;58263;48.146;11.440;2023-04-08T02:17:44;6.07;;;4.70;;
70683;SDS011;58263;48.146;11.440;2023-04-08T02:22:49;6.65;;;4.43;;
70683;SDS011;58263;48.146;11.440;2023-04-08T02:25:22;8.02;;;4.43;;
70683;SDS011;58263;48.146;11.440;2023-04-08T02:27:50;7.13;;;4.32;;
70683;SDS011;58263;48.146;11.440;2023-04-08T02:30:17;6.95;;;4.60;;
70683;SDS011;58263;48.146;11.440;2023-04-08T02:32:43;7.65;;;4.60;;
70683;SDS011;58263;48.146;11.440;2023-04-08T02:35:11;5.97;;;4.30;;
70683;SDS011;58263;48.146;11.440;2023-04-08T02:37:38;7.10;;;4.53;;
70683;SDS011;58263;48.146;11.440;2023-04-08T02:40:04;6.53;;;4.00;;
70683;SDS011;58263;48.146;11.440;2023-04-08T02:42:47;6.43;;;4.65;;
70683;SDS011;58263;48.146;11.440;2023-04-08T02:45:13;6.80;;;4.73;;
70683;SDS011;58263;48.146;11.440;2023-04-08T02:47:38;6.03;;;4.30;;
70683;SDS011;58263;48.146;11.440;2023-04-08T02:50:03;7.77;;;4.33;;
70683;SDS011;58263;48.146;11.440;2023-04-08T02:52:29;10.15;;;5.05;;
70683;SDS011;58263;48.146;11.440;2023-04-08T02:54:55;8.20;;;5.17;;
70683;SDS011;58263;48.146;11.440;2023-04-08T02:57:20;7.77;;;4.30;;
70683;SDS011;58263;48.146;11.440;2023-04-08T02:59:45;8.07;;;5.07;;
70683;SDS011;58263;48.146;11.440;2023-04-08T03:02:10;6.93;;;4.87;;
70683;SDS011;58263;48.146;11.440;2023-04-08T03:04:36;9.83;;;5.10;;
70683;SDS011;58263;48.146;11.440;2023-04-08T03:07:01;7.27;;;5.57;;
70683;SDS011;58263;48.146;11.440;2023-04-08T03:09:26;8.37;;;5.03;;
70683;SDS011;58263;48.146;11.440;2023-04-08T03:11:52;7.20;;;4.65;;
70683;SDS011;58263;48.146;11.440;2023-04-08T03:14:19;8.80;;;4.55;;
70683;SDS011;58263;48.146;11.440;2023-04-08T03:16:45;7.80;;;5.30;;
70683;SDS011;58263;48.146;11.440;2023-04-08T03:19:10;7.03;;;5.23;;
70683;SDS011;58263;48.146;11.440;2023-04-08T03:21:35;9.47;;;4.53;;
70683;SDS011;58263;48.146;11.440;2023-04-08T03:24:01;22.97;;;12.27;;
70683;SDS011;58263;48.146;11.440;2023-04-08T03:26:26;11.83;;;6.47;;
70683;SDS011;58263;48.146;11.440;2023-04-08T03:28:52;9.10;;;5.97;;
70683;SDS011;58263;48.146;11.440;2023-04-08T03:31:17;7.50;;;4.87;;
70683;SDS011;58263;48.146;11.440;2023-04-08T03:33:45;7.85;;;5.75;;
70683;SDS011;58263;48.146;11.440;2023-04-08T03:36:10;7.22;;;5.60;;
70683;SDS011;58263;48.146;11.440;2023-04-08T03:38:36;8.65;;;5.30;;
70683;SDS011;58263;48.146;11.440;2023-04-08T03:41:01;8.32;;;5.43;;
70683;SDS011;58263;48.146;11.440;2023-04-08T03:43:27;9.87;;;5.23;;
70683;SDS011;58263;48.146;11.440;2023-04-08T03:45:52;6.68;;;4.88;;
70683;SDS011;58263;48.146;11.440;2023-04-08T03:48:17;8.63;;;5.57;;
70683;SDS011;58263;48.146;11.440;2023-04-08T03:50:43;8.97;;;5.87;;
70683;SDS011;58263;48.146;11.440;2023-04-08T03:53:08;11.07;;;7.00;;
70683;SDS011;58263;48.146;11.440;2023-04-08T03:55:36;10.85;;;5.93;;
70683;SDS011;58263;48.146;11.440;2023-04-08T03:58:01;8.17;;;5.27;;
70683;SDS011;58263;48.146;11.440;2023-04-08T04:00:26;8.73;;;6.13;;
70683;SDS011;58263;48.146;11.440;2023-04-08T04:02:52;8.98;;;5.85;;
70683;SDS011;58263;48.146;11.440;2023-04-08T04:05:17;8.40;;;5.33;;
70683;SDS011;58263;48.146;11.440;2023-04-08T04:07:42;8.82;;;5.65;;
70683;SDS011;58263;48.146;11.440;2023-04-08T04:10:08;9.02;;;6.43;;
70683;SDS011;58263;48.146;11.440;2023-04-08T04:12:34;17.85;;;10.07;;
70683;SDS011;58263;48.146;11.440;2023-04-08T04:15:00;8.90;;;6.03;;
70683;SDS011;58263;48.146;11.440;2023-04-08T04:17:25;10.60;;;6.50;;
70683;SDS011;58263;48.146;11.440;2023-04-08T04:19:51;12.07;;;6.25;;
70683;SDS011;58263;48.146;11.440;2023-04-08T04:22:17;8.70;;;6.43;;
70683;SDS011;58263;48.146;11.440;2023-04-08T04:24:45;11.15;;;6.05;;
70683;SDS011;58263;48.146;11.440;2023-04-08T04:27:14;8.25;;;6.22;;
70683;SDS011;58263;48.146;11.440;2023-04-08T04:29:41;9.15;;;6.40;;
70683;SDS011;58263;48.146;11.440;2023-04-08T04:32:07;11.85;;;6.78;;
70683;SDS011;58263;48.146;11.440;2023-04-08T04:34:32;12.60;;;6.82;;
70683;SDS011;58263;48.146;11.440;2023-04-08T04:36:58;11.40;;;7.50;;
70683;SDS011;58263;48.146;11.440;2023-04-08T04:39:23;11.70;;;7.33;;
70683;SDS011;58263;48.146;11.440;2023-04-08T04:41:49;11.50;;;7.32;;
70683;SDS011;58263;48.146;11.440;2023-04-08T04:44:14;11.90;;;7.32;;
70683;SDS011;58263;48.146;11.440;2023-04-08T04:46:40;13.88;;;7.25;;
70683;SDS011;58263;48.146;11.440;2023-04-08T04:49:05;10.20;;;7.22;;
70683;SDS011;58263;48.146;11.440;2023-04-08T04:51:31;11.23;;;7.68;;
70683;SDS011;58263;48.146;11.440;2023-04-08T04:53:57;10.77;;;6.78;;
70683;SDS011;58263;48.146;11.440;2023-04-08T04:56:22;13.52;;;8.18;;
70683;SDS011;58263;48.146;11.440;2023-04-08T04:58:48;11.88;;;6.53;;
70683;SDS011;58263;48.146;11.440;2023-04-08T05:01:13;13.30;;;7.67;;
70683;SDS011;58263;48.146;11.440;2023-04-08T05:03:38;11.60;;;7.30;;
70683;SDS011;58263;48.146;11.440;2023-04-08T05:06:04;14.67;;;8.23;;
70683;SDS011;58263;48.146;11.440;2023-04-08T05:08:29;13.52;;;8.30;;
70683;SDS011;58263;48.146;11.440;2023-04-08T05:10:55;14.10;;;7.90;;
70683;SDS011;58263;48.146;11.440;2023-04-08T05:13:20;11.65;;;6.78;;
70683;SDS011;58263;48.146;11.440;2023-04-08T05:15:46;17.20;;;10.00;;
70683;SDS011;58263;48.146;11.440;2023-04-08T05:18:12;13.80;;;7.65;;
70683;SDS011;58263;48.146;11.440;2023-04-08T05:20:37;10.77;;;7.65;;
70683;SDS011;58263;48.146;11.440;2023-04-08T05:23:03;12.63;;;8.10;;
70683;SDS011;58263;48.146;11.440;2023-04-08T05:25:29;13.23;;;7.77;;
70683;SDS011;58263;48.146;11.440;2023-04-08T05:27:54;11.82;;;6.97;;
70683;SDS011;58263;48.146;11.440;2023-04-08T05:30:20;12.70;;;7.82;;
70683;SDS011;58263;48.146;11.440;2023-04-08T05:32:46;13.15;;;8.20;;
70683;SDS011;58263;48.146;11.440;2023-04-08T05:35:11;16.23;;;9.00;;
70683;SDS011;58263;48.146;11.440;2023-04-08T05:37:36;13.80;;;8.20;;
70683;SDS011;58263;48.146;11.440;2023-04-08T05:40:02;15.10;;;9.10;;
70683;SDS011;58263;48.146;11.440;2023-04-08T05:42:27;14.25;;;9.10;;
70683;SDS011;58263;48.146;11.440;2023-04-08T05:44:53;13.60;;;7.65;;
70683;SDS011;58263;48.146;11.440;2023-04-08T05:47:18;11.57;;;7.57;;
70683;SDS011;58263;48.146;11.440;2023-04-08T05:49:43;13.97;;;8.27;;
70683;SDS011;58263;48.146;11.440;2023-04-08T05:52:08;14.20;;;9.10;;
70683;SDS011;58263;48.146;11.440;2023-04-08T05:54:34;14.32;;;8.30;;
70683;SDS011;58263;48.146;11.440;2023-04-08T05:56:59;12.70;;;8.07;;
70683;SDS011;58263;48.146;11.440;2023-04-08T05:59:25;12.35;;;7.95;;
70683;SDS011;58263;48.146;11.440;2023-04-08T06:01:50;12.60;;;7.43;;
70683;SDS011;58263;48.146;11.440;2023-04-08T06:04:15;11.27;;;7.38;;
70683;SDS011;58263;48.146;11.440;2023-04-08T06:06:41;15.18;;;7.57;;
70683;SDS011;58263;48.146;11.440;2023-04-08T06:09:07;12.98;;;7.55;;
70683;SDS011;58263;48.146;11.440;2023-04-08T06:11:33;12.98;;;8.32;;
70683;SDS011;58263;48.146;11.440;2023-04-08T06:13:59;10.60;;;7.35;;
70683;SDS011;58263;48.146;11.440;2023-04-08T06:16:24;10.93;;;6.47;;
70683;SDS011;58263;48.146;11.440;2023-04-08T06:18:50;12.20;;;7.28;;
70683;SDS011;58263;48.146;11.440;2023-04-08T06:21:16;12.52;;;6.93;;
70683;SDS011;58263;48.146;11.440;2023-04-08T06:23:41;12.85;;;7.55;;
70683;SDS011;58263;48.146;11.440;2023-04-08T06:26:06;12.47;;;7.53;;
70683;SDS011;58263;48.146;11.440;2023-04-08T06:28:32;12.03;;;7.03;;
70683;SDS011;58263;48.146;11.440;2023-04-08T06:30:57;14.50;;;8.73;;
70683;SDS011;58263;48.146;11.440;2023-04-08T06:33:23;13.13;;;8.07;;
70683;SDS011;58263;48.146;11.440;2023-04-08T06:35:49;14.95;;;8.50;;
70683;SDS011;58263;48.146;11.440;2023-04-08T06:38:14;13.25;;;8.50;;
70683;SDS011;58263;48.146;11.440;2023-04-08T06:40:40;13.00;;;8.05;;
70683;SDS011;58263;48.146;11.440;2023-04-08T06:43:05;17.73;;;8.05;;
70683;SDS011;58263;48.146;11.440;2023-04-08T06:45:31;12.32;;;7.35;;
70683;SDS011;58263;48.146;11.440;2023-04-08T06:47:57;13.70;;;8.55;;
70683;SDS011;58263;48.146;11.440;2023-04-08T06:50:22;13.87;;;7.37;;
70683;SDS011;58263;48.146;11.440;2023-04-08T06:52:47;9.70;;;7.17;;
70683;SDS011;58263;48.146;11.440;2023-04-08T06:55:13;16.52;;;8.65;;
70683;SDS011;58263;48.146;11.440;2023-04-08T06:57:38;12.83;;;8.60;;
70683;SDS011;58263;48.146;11.440;2023-04-08T07:00:04;14.43;;;8.20;;
70683;SDS011;58263;48.146;11.440;2023-04-08T07:02:30;13.73;;;8.40;;
70683;SDS011;58263;48.146;11.440;2023-04-08T07:04:56;12.95;;;8.02;;
70683;SDS011;58263;48.146;11.440;2023-04-08T07:07:22;12.77;;;8.27;;
70683;SDS011;58263;48.146;11.440;2023-04-08T07:09:48;13.25;;;8.27;;
70683;SDS011;58263;48.146;11.440;2023-04-08T07:12:14;13.05;;;8.52;;
70683;SDS011;58263;48.146;11.440;2023-04-08T07:14:39;16.97;;;10.00;;
70683;SDS011;58263;48.146;11.440;2023-04-08T07:17:05;16.13;;;9.27;;
70683;SDS011;58263;48.146;11.440;2023-04-08T07:19:30;13.82;;;9.05;;
70683;SDS011;58263;48.146;11.440;2023-04-08T07:21:56;12.88;;;8.63;;
70683;SDS011;58263;48.146;11.440;2023-04-08T07:24:22;13.88;;;8.60;;
70683;SDS011;58263;48.146;11.440;2023-04-08T07:26:48;15.75;;;9.35;;
70683;SDS011;58263;48.146;11.440;2023-04-08T07:29:15;14.98;;;9.35;;
70683;SDS011;58263;48.146;11.440;2023-04-08T07:31:41;14.80;;;8.70;;
70683;SDS011;58263;48.146;11.440;2023-04-08T07:34:07;13.93;;;8.32;;
70683;SDS011;58263;48.146;11.440;2023-04-08T07:36:33;11.82;;;8.80;;
70683;SDS011;58263;48.146;11.440;2023-04-08T07:38:58;14.13;;;9.07;;
70683;SDS011;58263;48.146;11.440;2023-04-08T07:41:23;14.25;;;8.45;;
70683;SDS011;58263;48.146;11.440;2023-04-08T07:43:49;15.00;;;9.68;;
70683;SDS011;58263;48.146;11.440;2023-04-08T07:46:15;14.55;;;9.40;;
70683;SDS011;58263;48.146;11.440;2023-04-08T07:48:41;13.17;;;9.10;;
70683;SDS011;58263;48.146;11.440;2023-04-08T07:51:07;12.32;;;8.52;;
70683;SDS011;58263;48.146;11.440;2023-04-08T07:53:33;14.32;;;8.55;;
70683;SDS011;58263;48.146;11.440;2023-04-08T07:55:59;11.45;;;8.00;;
70683;SDS011;58263;48.146;11.440;2023-04-08T07:58:25;16.73;;;9.40;;
70683;SDS011;58263;48.146;11.440;2023-04-08T08:00:50;12.05;;;7.60;;
70683;SDS011;58263;48.146;11.440;2023-04-08T08:03:16;12.20;;;8.07;;
70683;SDS011;58263;48.146;11.440;2023-04-08T08:05:41;11.60;;;8.07;;
70683;SDS011;58263;48.146;11.440;2023-04-08T08:08:07;13.10;;;8.80;;
70683;SDS011;58263;48.146;11.440;2023-04-08T08:10:35;11.18;;;6.90;;
70683;SDS011;58263;48.146;11.440;2023-04-08T08:13:00;11.00;;;7.28;;
70683;SDS011;58263;48.146;11.440;2023-04-08T08:15:26;12.57;;;8.13;;
70683;SDS011;58263;48.146;11.440;2023-04-08T08:17:51;18.73;;;8.03;;
70683;SDS011;58263;48.146;11.440;2023-04-08T08:20:16;11.60;;;8.03;;
70683;SDS011;58263;48.146;11.440;2023-04-08T08:22:42;13.87;;;8.03;;
70683;SDS011;58263;48.146;11.440;2023-04-08T08:25:09;13.05;;;8.10;;
70683;SDS011;58263;48.146;11.440;2023-04-08T08:27:34;15.90;;;7.70;;
70683;SDS011;58263;48.146;11.440;2023-04-08T08:30:00;15.02;;;8.88;;
70683;SDS011;58263;48.146;11.440;2023-04-08T08:32:26;12.57;;;7.80;;
70683;SDS011;58263;48.146;11.440;2023-04-08T08:34:52;13.40;;;7.53;;
70683;SDS011;58263;48.146;11.440;2023-04-08T08:37:17;12.17;;;7.60;;
70683;SDS011;58263;48.146;11.440;2023-04-08T08:39:42;11.83;;;7.93;;
70683;SDS011;58263;48.146;11.440;2023-04-08T08:42:18;12.55;;;8.27;;
70683;SDS011;58263;48.146;11.440;2023-04-08T08:44:45;14.60;;;7.65;;
70683;SDS011;58263;48.146;11.440;2023-04-08T08:47:10;12.80;;;8.13;;
70683;SDS011;58263;48.146;11.440;2023-04-08T08:49:35;13.33;;;8.00;;
70683;SDS011;58263;48.146;11.440;2023-04-08T08:52:01;11.30;;;7.45;;
70683;SDS011;58263;48.146;11.440;2023-04-08T08:54:26;11.97;;;7.83;;
70683;SDS011;58263;48.146;11.440;2023-04-08T08:56:52;12.70;;;7.97;;
70683;SDS011;58263;48.146;11.440;2023-04-08T08:59:17;13.80;;;8.03;;
70683;SDS011;58263;48.146;11.440;2023-04-08T09:01:43;13.57;;;8.60;;
70683;SDS011;58263;48.146;11.440;2023-04-08T09:04:12;11.63;;;7.50;;
70683;SDS011;58263;48.146;11.440;2023-04-08T09:06:40;11.32;;;7.38;;
70683;SDS011;58263;48.146;11.440;2023-04-08T09:09:05;11.45;;;8.23;;
70683;SDS011;58263;48.146;11.440;2023-04-08T09:11:34;13.45;;;7.32;;
70683;SDS011;58263;48.146;11.440;2023-04-08T09:14:00;12.00;;;7.82;;
70683;SDS011;58263;48.146;11.440;2023-04-08T09:16:26;10.20;;;6.83;;
70683;SDS011;58263;48.146;11.440;2023-04-08T09:18:52;11.00;;;7.30;;
70683;SDS011;58263;48.146;11.440;2023-04-08T09:21:18;12.02;;;6.93;;
70683;SDS011;58263;48.146;11.440;2023-04-08T09:26:16;12.68;;;7.30;;
70683;SDS011;58263;48.146;11.440;2023-04-08T09:31:32;10.88;;;7.00;;
70683;SDS011;58263;48.146;11.440;2023-04-08T09:34:09;11.02;;;7.25;;
70683;SDS011;58263;48.146;11.440;2023-04-08T09:36:39;12.00;;;7.43;;
70683;SDS011;58263;48.146;11.440;2023-04-08T09:39:05;11.32;;;7.18;;
70683;SDS011;58263;48.146;11.440;2023-04-08T09:41:34;11.57;;;8.25;;
70683;SDS011;58263;48.146;11.440;2023-04-08T09:44:02;10.50;;;7.40;;
70683;SDS011;58263;48.146;11.440;2023-04-08T09:46:46;11.38;;;7.07;;
70683;SDS011;58263;48.146;11.440;2023-04-08T09:54:52;11.25;;;7.82;;
70683;SDS011;58263;48.146;11.440;2023-04-08T10:00:17;10.93;;;7.35;;
70683;SDS011;58263;48.146;11.440;2023-04-08T10:05:31;11.93;;;7.65;;
70683;SDS011;58263;48.146;11.440;2023-04-08T10:08:00;13.50;;;7.90;;
70683;SDS011;58263;48.146;11.440;2023-04-08T10:10:25;11.97;;;7.47;;
70683;SDS011;58263;48.146;11.440;2023-04-08T10:12:51;15.60;;;9.25;;
70683;SDS011;58263;48.146;11.440;2023-04-08T10:17:49;11.32;;;8.25;;
70683;SDS011;58263;48.146;11.440;2023-04-08T10:22:58;15.77;;;9.18;;
70683;SDS011;58263;48.146;11.440;2023-04-08T10:25:28;13.07;;;8.18;;
70683;SDS011;58263;48.146;11.440;2023-04-08T10:27:58;12.80;;;8.77;;
70683;SDS011;58263;48.146;11.440;2023-04-08T10:32:49;12.93;;;8.83;;
70683;SDS011;58263;48.146;11.440;2023-04-08T10:35:15;13.07;;;8.40;;
70683;SDS011;58263;48.146;11.440;2023-04-08T10:37:41;13.52;;;8.40;;
70683;SDS011;58263;48.146;11.440;2023-04-08T10:40:17;16.05;;;9.07;;
70683;SDS011;58263;48.146;11.440;2023-04-08T10:42:43;12.73;;;8.98;;
70683;SDS011;58263;48.146;11.440;2023-04-08T10:45:08;15.48;;;9.25;;
70683;SDS011;58263;48.146;11.440;2023-04-08T10:47:34;12.55;;;8.10;;
70683;SDS011;58263;48.146;11.440;2023-04-08T10:49:59;12.83;;;8.90;;
70683;SDS011;58263;48.146;11.440;2023-04-08T10:52:26;12.68;;;8.73;;
70683;SDS011;58263;48.146;11.440;2023-04-08T10:54:52;13.43;;;8.20;;
70683;SDS011;58263;48.146;11.440;2023-04-08T10:57:23;13.07;;;8.43;;
70683;SDS011;58263;48.146;11.440;2023-04-08T10:59:49;13.15;;;8.75;;
70683;SDS011;58263;48.146;11.440;2023-04-08T11:02:15;13.02;;;8.85;;
70683;SDS011;58263;48.146;11.440;2023-04-08T11:04:41;14.63;;;10.10;;
70683;SDS011;58263;48.146;11.440;2023-04-08T11:07:07;17.33;;;8.52;;
70683;SDS011;58263;48.146;11.440;2023-04-08T11:09:33;13.68;;;8.18;;
70683;SDS011;58263;48.146;11.440;2023-04-08T11:11:58;13.68;;;9.27;;
70683;SDS011;58263;48.146;11.440;2023-04-08T11:14:25;13.63;;;8.68;;
70683;SDS011;58263;48.146;11.440;2023-04-08T11:16:51;14.10;;;8.77;;
70683;SDS011;58263;48.146;11.440;2023-04-08T11:19:17;13.57;;;8.45;;
70683;SDS011;58263;48.146;11.440;2023-04-08T11:21:42;13.70;;;9.23;;
70683;SDS011;58263;48.146;11.440;2023-04-08T11:24:08;14.05;;;8.93;;
70683;SDS011;58263;48.146;11.440;2023-04-08T11:26:38;13.75;;;8.93;;
70683;SDS011;58263;48.146;11.440;2023-04-08T11:29:05;16.60;;;9.55;;
70683;SDS011;58263;48.146;11.440;2023-04-08T11:31:30;13.45;;;8.77;;
70683;SDS011;58263;48.146;11.440;2023-04-08T11:33:56;13.10;;;8.88;;
70683;SDS011;58263;48.146;11.440;2023-04-08T11:36:22;14.15;;;9.55;;
70683;SDS011;58263;48.146;11.440;2023-04-08T11:38:48;13.18;;;9.05;;
70683;SDS011;58263;48.146;11.440;2023-04-08T11:41:13;12.73;;;8.23;;
70683;SDS011;58263;48.146;11.440;2023-04-08T11:43:49;13.50;;;8.70;;
70683;SDS011;58263;48.146;11.440;2023-04-08T11:46:15;17.60;;;10.07;;
70683;SDS011;58263;48.146;11.440;2023-04-08T11:48:41;17.73;;;9.90;;
70683;SDS011;58263;48.146;11.440;2023-04-08T11:51:21;12.75;;;8.38;;
70683;SDS011;58263;48.146;11.440;2023-04-08T11:53:46;13.73;;;9.03;;
70683;SDS011;58263;48.146;11.440;2023-04-08T11:56:16;13.10;;;8.77;;
70683;SDS011;58263;48.146;11.440;2023-04-08T11:58:42;14.80;;;9.10;;
70683;SDS011;58263;48.146;11.440;2023-04-08T12:01:08;16.93;;;9.23;;
70683;SDS011;58263;48.146;11.440;2023-04-08T12:03:33;10.70;;;7.70;;
70683;SDS011;58263;48.146;11.440;2023-04-08T12:05:58;12.80;;;8.00;;
70683;SDS011;58263;48.146;11.440;2023-04-08T12:08:24;17.17;;;8.98;;
70683;SDS011;58263;48.146;11.440;2023-04-08T12:10:50;18.75;;;9.90;;
70683;SDS011;58263;48.146;11.440;2023-04-08T12:13:15;11.95;;;8.23;;
70683;SDS011;58263;48.146;11.440;2023-04-08T12:15:40;12.30;;;8.40;;
70683;SDS011;58263;48.146;11.440;2023-04-08T12:18:06;12.98;;;8.27;;
70683;SDS011;58263;48.146;11.440;2023-04-08T12:20:31;12.60;;;8.37;;
70683;SDS011;58263;48.146;11.440;2023-04-08T12:22:56;14.48;;;9.05;;
70683;SDS011;58263;48.146;11.440;2023-04-08T12:25:22;13.53;;;9.73;;
70683;SDS011;58263;48.146;11.440;2023-04-08T12:27:47;12.45;;;8.45;;
70683;SDS011;58263;48.146;11.440;2023-04-08T12:30:12;13.23;;;8.23;;
70683;SDS011;58263;48.146;11.440;2023-04-08T12:32:38;11.75;;;8.32;;
70683;SDS011;58263;48.146;11.440;2023-04-08T12:35:03;14.10;;;8.47;;
70683;SDS011;58263;48.146;11.440;2023-04-08T12:37:29;12.38;;;8.43;;
70683;SDS011;58263;48.146;11.440;2023-04-08T12:39:54;13.38;;;8.18;;
70683;SDS011;58263;48.146;11.440;2023-04-08T12:42:20;14.23;;;7.97;;
70683;SDS011;58263;48.146;11.440;2023-04-08T12:44:45;13.52;;;8.30;;
70683;SDS011;58263;48.146;11.440;2023-04-08T12:47:10;13.63;;;8.20;;
70683;SDS011;58263;48.146;11.440;2023-04-08T12:49:36;13.33;;;8.57;;
70683;SDS011;58263;48.146;11.440;2023-04-08T12:52:01;10.80;;;7.70;;
70683;SDS011;58263;48.146;11.440;2023-04-08T12:54:27;9.13;;;6.97;;
70683;SDS011;58263;48.146;11.440;2023-04-08T12:56:52;11.93;;;8.27;;
70683;SDS011;58263;48.146;11.440;2023-04-08T12:59:18;10.23;;;6.90;;
70683;SDS011;58263;48.146;11.440;2023-04-08T13:01:43;10.07;;;6.77;;
70683;SDS011;58263;48.146;11.440;2023-04-08T13:04:08;10.80;;;7.13;;
70683;SDS011;58263;48.146;11.440;2023-04-08T13:06:34;10.40;;;6.75;;
70683;SDS011;58263;48.146;11.440;2023-04-08T13:08:59;9.73;;;7.43;;
70683;SDS011;58263;48.146;11.440;2023-04-08T13:11:25;9.85;;;7.25;;
70683;SDS011;58263;48.146;11.440;2023-04-08T13:13:50;8.70;;;6.00;;
70683;SDS011;58263;48.146;11.440;2023-04-08T13:16:16;8.30;;;5.63;;
70683;SDS011;58263;48.146;11.440;2023-04-08T13:18:44;7.93;;;5.85;;
70683;SDS011;58263;48.146;11.440;2023-04-08T13:21:10;10.43;;;6.25;;
70683;SDS011;58263;48.146;11.440;2023-04-08T13:23:35;8.07;;;6.25;;
70683;SDS011;58263;48.146;11.440;2023-04-08T13:26:01;8.02;;;5.40;;
70683;SDS011;58263;48.146;11.440;2023-04-08T13:28:27;7.53;;;5.78;;
70683;SDS011;58263;48.146;11.440;2023-04-08T13:30:52;9.07;;;6.80;;
70683;SDS011;58263;48.146;11.440;2023-04-08T13:33:18;10.05;;;6.90;;
70683;SDS011;58263;48.146;11.440;2023-04-08T13:35:43;8.23;;;5.60;;
70683;SDS011;58263;48.146;11.440;2023-04-08T13:38:09;11.43;;;6.72;;
70683;SDS011;58263;48.146;11.440;2023-04-08T13:40:34;8.98;;;5.93;;
70683;SDS011;58263;48.146;11.440;2023-04-08T13:43:00;10.07;;;6.05;;
70683;SDS011;58263;48.146;11.440;2023-04-08T13:45:25;9.77;;;6.60;;
70683;SDS011;58263;48.146;11.440;2023-04-08T13:47:51;7.70;;;5.70;;
70683;SDS011;58263;48.146;11.440;2023-04-08T13:50:16;8.82;;;6.28;;
70683;SDS011;58263;48.146;11.440;2023-04-08T13:52:41;9.63;;;6.70;;
70683;SDS011;58263;48.146;11.440;2023-04-08T13:55:07;11.30;;;6.50;;
70683;SDS011;58263;48.146;11.440;2023-04-08T13:57:32;10.48;;;7.35;;
70683;SDS011;58263;48.146;11.440;2023-04-08T13:59:58;9.20;;;6.15;;
70683;SDS011;58263;48.146;11.440;2023-04-08T14:02:23;9.40;;;6.13;;
70683;SDS011;58263;48.146;11.440;2023-04-08T14:04:48;9.77;;;5.97;;
70683;SDS011;58263;48.146;11.440;2023-04-08T14:07:14;9.45;;;6.75;;
70683;SDS011;58263;48.146;11.440;2023-04-08T14:09:40;9.98;;;7.10;;
70683;SDS011;58263;48.146;11.440;2023-04-08T14:12:05;8.77;;;6.35;;
70683;SDS011;58263;48.146;11.440;2023-04-08T14:14:31;10.40;;;6.38;;
70683;SDS011;58263;48.146;11.440;2023-04-08T14:16:56;8.20;;;6.10;;
70683;SDS011;58263;48.146;11.440;2023-04-08T14:19:21;10.60;;;7.07;;
70683;SDS011;58263;48.146;11.440;2023-04-08T14:21:47;10.18;;;6.75;;
70683;SDS011;58263;48.146;11.440;2023-04-08T14:24:12;9.27;;;6.32;;
70683;SDS011;58263;48.146;11.440;2023-04-08T14:26:37;10.75;;;6.97;;
70683;SDS011;58263;48.146;11.440;2023-04-08T14:29:03;9.93;;;6.97;;
70683;SDS011;58263;48.146;11.440;2023-04-08T14:31:30;8.77;;;6.47;;
70683;SDS011;58263;48.146;11.440;2023-04-08T14:33:56;10.40;;;6.93;;
70683;SDS011;58263;48.146;11.440;2023-04-08T14:36:22;9.73;;;6.65;;
70683;SDS011;58263;48.146;11.440;2023-04-08T14:38:48;9.75;;;6.40;;
70683;SDS011;58263;48.146;11.440;2023-04-08T14:41:14;8.43;;;5.65;;
70683;SDS011;58263;48.146;11.440;2023-04-08T14:43:39;8.85;;;5.93;;
70683;SDS011;58263;48.146;11.440;2023-04-08T14:46:04;8.77;;;6.03;;
70683;SDS011;58263;48.146;11.440;2023-04-08T14:48:30;10.85;;;7.07;;
70683;SDS011;58263;48.146;11.440;2023-04-08T14:50:55;10.07;;;6.57;;
70683;SDS011;58263;48.146;11.440;2023-04-08T14:53:21;9.57;;;6.28;;
70683;SDS011;58263;48.146;11.440;2023-04-08T14:55:47;8.52;;;6.22;;